Time,TemperatureF,DewpointF,PressureIn,WindDirection,WindDirectionDegrees,WindSpeedMPH,WindSpeedGustMPH,Humidity,HourlyPrecipIn,Conditions,Clouds,dailyrainin,SoftwareType,DateUTC
2013-03-22 00:00:00,23.0,12.6,29.91,ENE,68,1.8,1.8,64,0.00,,,0.00,WUHU216HW,2013-03-22 06:00:00,
2013-03-22 00:05:00,22.9,12.8,29.91,ENE,68,1.1,2.5,65,0.00,,,0.00,WUHU216HW,2013-03-22 06:05:00,
2013-03-22 00:10:00,22.7,12.6,29.91,SE,135,1.1,2.5,65,0.00,,,0.00,WUHU216HW,2013-03-22 06:10:00,
2013-03-22 00:15:00,22.9,13.1,29.91,ENE,68,1.6,2.2,66,0.00,,,0.00,WUHU216HW,2013-03-22 06:15:00,
2013-03-22 00:20:00,22.9,13.1,29.91,NNW,338,0.9,2.2,66,0.00,,,0.00,WUHU216HW,2013-03-22 06:20:00,
2013-03-22 00:25:00,22.7,13.0,29.91,NNE,23,0.0,1.3,66,0.00,,,0.00,WUHU216HW,2013-03-22 06:25:00,
2013-03-22 00:30:00,22.5,12.8,29.91,ENE,68,4.0,4.0,66,0.00,,,0.00,WUHU216HW,2013-03-22 06:30:00,
2013-03-22 00:35:00,23.0,14.0,29.91,ENE,68,1.8,4.0,68,0.00,,,0.00,WUHU216HW,2013-03-22 06:35:00,
2013-03-22 00:40:00,23.2,13.9,29.91,NE,45,1.3,3.8,67,0.00,,,0.00,WUHU216HW,2013-03-22 06:40:00,
2013-03-22 00:45:00,23.2,13.9,29.91,West,270,2.0,3.8,67,0.00,,,0.00,WUHU216HW,2013-03-22 06:45:00,
2013-03-22 00:50:00,23.0,13.3,29.91,NE,45,1.1,3.8,66,0.00,,,0.00,WUHU216HW,2013-03-22 06:50:00,
2013-03-22 00:55:00,23.2,14.2,29.91,ENE,68,3.8,4.7,68,0.00,,,0.00,WUHU216HW,2013-03-22 06:55:00,
2013-03-22 01:00:00,23.6,14.6,29.91,ENE,68,3.1,5.1,68,0.00,,,0.00,WUHU216HW,2013-03-22 07:00:00,
2013-03-22 01:05:00,23.8,14.7,29.90,ESE,113,0.7,5.1,68,0.00,,,0.00,WUHU216HW,2013-03-22 07:05:00,
2013-03-22 01:10:00,23.9,14.1,29.90,East,90,1.8,3.6,66,0.00,,,0.00,WUHU216HW,2013-03-22 07:10:00,
2013-03-22 01:15:00,24.1,14.3,29.90,WNW,293,1.6,5.1,66,0.00,,,0.00,WUHU216HW,2013-03-22 07:15:00,
2013-03-22 01:20:00,24.1,14.0,29.90,NE,45,1.1,5.1,65,0.00,,,0.00,WUHU216HW,2013-03-22 07:20:00,
2013-03-22 01:25:00,24.3,13.5,29.90,North,0,3.4,4.7,63,0.00,,,0.00,WUHU216HW,2013-03-22 07:25:00,
2013-03-22 01:30:00,24.7,14.1,29.90,ESE,113,3.4,4.7,64,0.00,,,0.00,WUHU216HW,2013-03-22 07:30:00,
2013-03-22 01:35:00,24.7,14.5,29.90,NE,45,3.4,4.0,65,0.00,,,0.00,WUHU216HW,2013-03-22 07:35:00,
2013-03-22 01:40:00,24.8,14.7,29.90,ENE,68,2.0,4.0,65,0.00,,,0.00,WUHU216HW,2013-03-22 07:40:00,
2013-03-22 01:45:00,24.5,14.3,29.90,NE,45,3.1,3.1,65,0.00,,,0.00,WUHU216HW,2013-03-22 07:45:00,
2013-03-22 01:50:00,24.5,14.3,29.90,ENE,68,1.1,4.0,65,0.00,,,0.00,WUHU216HW,2013-03-22 07:50:00,
2013-03-22 01:55:00,24.3,14.1,29.90,WNW,293,1.6,4.0,65,0.00,,,0.00,WUHU216HW,2013-03-22 07:55:00,
2013-03-22 02:00:00,24.1,14.3,29.90,NE,45,1.1,2.5,66,0.00,,,0.00,WUHU216HW,2013-03-22 08:00:00,
2013-03-22 02:05:00,24.1,14.3,29.90,ENE,68,1.8,2.7,66,0.00,,,0.00,WUHU216HW,2013-03-22 08:05:00,
2013-03-22 02:10:00,23.9,14.1,29.90,ESE,113,2.5,2.7,66,0.00,,,0.00,WUHU216HW,2013-03-22 08:10:00,
2013-03-22 02:15:00,23.9,14.1,29.91,ESE,113,0.9,3.1,66,0.00,,,0.00,WUHU216HW,2013-03-22 08:15:00,
2013-03-22 02:20:00,23.8,14.1,29.91,ENE,68,1.8,3.1,66,0.00,,,0.00,WUHU216HW,2013-03-22 08:20:00,
2013-03-22 02:25:00,23.8,14.1,29.91,ENE,68,0.2,2.5,66,0.00,,,0.00,WUHU216HW,2013-03-22 08:25:00,
2013-03-22 02:30:00,23.9,14.1,29.91,NNE,23,1.8,2.5,66,0.00,,,0.00,WUHU216HW,2013-03-22 08:30:00,
2013-03-22 02:35:00,23.9,14.9,29.91,NNE,23,0.4,2.2,68,0.00,,,0.00,WUHU216HW,2013-03-22 08:35:00,
2013-03-22 02:40:00,24.1,14.7,29.91,SE,135,0.9,2.2,67,0.00,,,0.00,WUHU216HW,2013-03-22 08:40:00,
2013-03-22 02:45:00,24.1,14.7,29.91,SE,135,1.8,1.8,67,0.00,,,0.00,WUHU216HW,2013-03-22 08:45:00,
2013-03-22 02:50:00,24.1,14.7,29.90,ESE,113,0.7,1.8,67,0.00,,,0.00,WUHU216HW,2013-03-22 08:50:00,
2013-03-22 02:55:00,23.9,14.9,29.91,SSW,203,1.1,2.5,68,0.00,,,0.00,WUHU216HW,2013-03-22 08:55:00,
2013-03-22 03:00:00,23.9,14.9,29.90,SE,135,0.4,2.5,68,0.00,,,0.00,WUHU216HW,2013-03-22 09:00:00,
2013-03-22 03:05:00,23.8,14.7,29.90,SE,135,0.0,0.9,68,0.00,,,0.00,WUHU216HW,2013-03-22 09:05:00,
2013-03-22 03:10:00,23.6,14.6,29.90,ENE,68,1.1,1.1,68,0.00,,,0.00,WUHU216HW,2013-03-22 09:10:00,
2013-03-22 03:15:00,23.4,14.4,29.90,East,90,0.7,1.1,68,0.00,,,0.00,WUHU216HW,2013-03-22 09:15:00,
2013-03-22 03:20:00,23.4,14.4,29.90,ENE,68,0.2,1.1,68,0.00,,,0.00,WUHU216HW,2013-03-22 09:20:00,
2013-03-22 03:25:00,23.4,14.4,29.90,WSW,248,1.1,3.4,68,0.00,,,0.00,WUHU216HW,2013-03-22 09:25:00,
2013-03-22 03:30:00,23.4,14.4,29.90,WSW,248,0.0,3.4,68,0.00,,,0.00,WUHU216HW,2013-03-22 09:30:00,
2013-03-22 03:35:00,23.0,14.0,29.90,East,90,0.9,1.8,68,0.00,,,0.00,WUHU216HW,2013-03-22 09:35:00,
2013-03-22 03:40:00,22.9,13.9,29.90,NW,315,1.1,1.8,68,0.00,,,0.00,WUHU216HW,2013-03-22 09:40:00,
2013-03-22 03:45:00,22.7,14.0,29.90,NNW,338,0.4,1.8,69,0.00,,,0.00,WUHU216HW,2013-03-22 09:45:00,
2013-03-22 03:50:00,22.1,13.5,29.90,NNW,338,0.0,1.8,69,0.00,,,0.00,WUHU216HW,2013-03-22 09:50:00,
2013-03-22 03:55:00,22.0,13.7,29.90,NNW,338,0.0,0.4,70,0.00,,,0.00,WUHU216HW,2013-03-22 09:55:00,
2013-03-22 04:00:00,22.0,13.3,29.90,NNW,338,0.0,0.4,69,0.00,,,0.00,WUHU216HW,2013-03-22 10:00:00,
2013-03-22 04:05:00,21.8,13.1,29.90,NE,45,1.6,2.0,69,0.00,,,0.00,WUHU216HW,2013-03-22 10:05:00,
2013-03-22 04:10:00,21.8,13.5,29.90,NE,45,1.8,2.2,70,0.00,,,0.00,WUHU216HW,2013-03-22 10:10:00,
2013-03-22 04:15:00,22.0,13.7,29.90,ENE,68,2.0,2.5,70,0.00,,,0.00,WUHU216HW,2013-03-22 10:15:00,
2013-03-22 04:20:00,22.0,13.7,29.90,ENE,68,0.0,2.5,70,0.00,,,0.00,WUHU216HW,2013-03-22 10:20:00,
2013-03-22 04:25:00,22.0,13.7,29.90,ENE,68,0.0,1.3,70,0.00,,,0.00,WUHU216HW,2013-03-22 10:25:00,
2013-03-22 04:30:00,21.8,13.5,29.90,ENE,68,0.7,0.7,70,0.00,,,0.00,WUHU216HW,2013-03-22 10:30:00,
2013-03-22 04:35:00,21.8,13.5,29.90,NE,45,0.9,2.0,70,0.00,,,0.00,WUHU216HW,2013-03-22 10:35:00,
2013-03-22 04:40:00,21.6,13.3,29.90,NE,45,0.4,2.0,70,0.00,,,0.00,WUHU216HW,2013-03-22 10:40:00,
2013-03-22 04:45:00,21.4,13.1,29.90,ENE,68,1.8,2.2,70,0.00,,,0.00,WUHU216HW,2013-03-22 10:45:00,
2013-03-22 04:50:00,21.1,12.8,29.90,North,0,1.1,2.2,70,0.00,,,0.00,WUHU216HW,2013-03-22 10:50:00,
2013-03-22 04:55:00,20.9,12.6,29.90,ENE,68,0.0,2.5,70,0.00,,,0.00,WUHU216HW,2013-03-22 10:55:00,
2013-03-22 05:00:00,20.5,12.2,29.90,ENE,68,0.4,2.5,70,0.00,,,0.00,WUHU216HW,2013-03-22 11:00:00,
2013-03-22 05:05:00,20.3,12.3,29.90,ENE,68,1.1,1.1,71,0.00,,,0.00,WUHU216HW,2013-03-22 11:05:00,
2013-03-22 05:10:00,20.0,12.0,29.90,NE,45,0.4,1.1,71,0.00,,,0.00,WUHU216HW,2013-03-22 11:10:00,
2013-03-22 05:15:00,19.8,11.8,29.90,North,0,0.9,1.6,71,0.00,,,0.00,WUHU216HW,2013-03-22 11:15:00,
2013-03-22 05:20:00,19.6,12.0,29.90,NE,45,2.2,2.2,72,0.00,,,0.00,WUHU216HW,2013-03-22 11:20:00,
2013-03-22 05:25:00,19.8,12.4,29.90,NE,45,0.4,2.2,73,0.00,,,0.00,WUHU216HW,2013-03-22 11:25:00,
2013-03-22 05:30:00,20.0,12.6,29.90,NE,45,1.6,2.2,73,0.00,,,0.00,WUHU216HW,2013-03-22 11:30:00,
2013-03-22 05:35:00,20.2,12.5,29.90,NNE,23,0.9,2.2,72,0.00,,,0.00,WUHU216HW,2013-03-22 11:35:00,
2013-03-22 05:40:00,20.2,12.5,29.90,NNE,23,1.3,2.0,72,0.00,,,0.00,WUHU216HW,2013-03-22 11:40:00,
2013-03-22 05:45:00,20.2,12.5,29.90,NE,45,3.1,3.1,72,0.00,,,0.00,WUHU216HW,2013-03-22 11:45:00,
2013-03-22 05:50:00,20.2,12.8,29.90,NNE,23,1.6,3.4,73,0.00,,,0.00,WUHU216HW,2013-03-22 11:50:00,
2013-03-22 05:55:00,20.2,12.8,29.90,ENE,68,1.8,3.4,73,0.00,,,0.00,WUHU216HW,2013-03-22 11:55:00,
2013-03-22 06:00:00,20.2,12.8,29.90,ENE,68,0.9,1.8,73,0.00,,,0.00,WUHU216HW,2013-03-22 12:00:00,
2013-03-22 06:05:00,20.3,13.0,29.90,ENE,68,0.0,1.8,73,0.00,,,0.00,WUHU216HW,2013-03-22 12:05:00,
2013-03-22 06:10:00,20.5,13.1,29.90,East,90,0.2,0.4,73,0.00,,,0.00,WUHU216HW,2013-03-22 12:10:00,
2013-03-22 06:15:00,20.9,13.9,29.90,ENE,68,1.1,1.3,74,0.00,,,0.00,WUHU216HW,2013-03-22 12:15:00,
2013-03-22 06:20:00,21.2,13.9,29.90,ENE,68,0.4,1.3,73,0.00,,,0.00,WUHU216HW,2013-03-22 12:20:00,
2013-03-22 06:25:00,21.2,13.6,29.90,ENE,68,1.3,1.3,72,0.00,,,0.00,WUHU216HW,2013-03-22 12:25:00,
2013-03-22 06:30:00,21.4,13.8,29.90,NE,45,2.5,2.5,72,0.00,,,0.00,WUHU216HW,2013-03-22 12:30:00,
2013-03-22 06:35:00,21.4,13.8,29.90,East,90,1.3,2.5,72,0.00,,,0.00,WUHU216HW,2013-03-22 12:35:00,
2013-03-22 06:40:00,21.4,13.8,29.90,East,90,0.7,1.3,72,0.00,,,0.00,WUHU216HW,2013-03-22 12:40:00,
2013-03-22 06:45:00,21.4,13.4,29.90,East,90,0.0,1.1,71,0.00,,,0.00,WUHU216HW,2013-03-22 12:45:00,
2013-03-22 06:50:00,21.2,13.6,29.90,East,90,0.0,0.4,72,0.00,,,0.00,WUHU216HW,2013-03-22 12:50:00,
2013-03-22 06:55:00,20.9,13.2,29.91,East,90,0.0,0.2,72,0.00,,,0.00,WUHU216HW,2013-03-22 12:55:00,
2013-03-22 07:00:00,20.5,12.9,29.91,East,90,1.6,1.8,72,0.00,,,0.00,WUHU216HW,2013-03-22 13:00:00,
2013-03-22 07:05:00,20.0,12.3,29.91,East,90,0.9,1.8,72,0.00,,,0.00,WUHU216HW,2013-03-22 13:05:00,
2013-03-22 07:10:00,19.3,12.3,29.91,NE,45,1.6,2.0,74,0.00,,,0.00,WUHU216HW,2013-03-22 13:10:00,
2013-03-22 07:15:00,19.1,12.1,29.91,NE,45,0.2,2.0,74,0.00,,,0.00,WUHU216HW,2013-03-22 13:15:00,
2013-03-22 07:20:00,18.9,11.9,29.91,NE,45,0.9,1.1,74,0.00,,,0.00,WUHU216HW,2013-03-22 13:20:00,
2013-03-22 07:25:00,18.9,11.9,29.91,ENE,68,1.1,1.8,74,0.00,,,0.00,WUHU216HW,2013-03-22 13:25:00,
2013-03-22 07:31:00,18.7,11.7,29.91,ENE,68,0.7,1.8,74,0.00,,,0.00,WUHU216HW,2013-03-22 13:31:00,
2013-03-22 07:36:00,18.7,12.0,29.91,ENE,68,1.8,1.8,75,0.00,,,0.00,WUHU216HW,2013-03-22 13:36:00,
2013-03-22 07:41:00,18.7,12.0,29.91,NE,45,3.1,3.1,75,0.00,,,0.00,WUHU216HW,2013-03-22 13:41:00,
2013-03-22 07:46:00,18.5,11.5,29.92,NE,45,4.3,4.3,74,0.00,,,0.00,WUHU216HW,2013-03-22 13:46:00,
2013-03-22 07:51:00,18.7,12.0,29.92,NE,45,2.5,4.3,75,0.00,,,0.00,WUHU216HW,2013-03-22 13:51:00,
2013-03-22 07:56:00,19.1,12.3,29.92,NE,45,1.6,3.8,75,0.00,,,0.00,WUHU216HW,2013-03-22 13:56:00,
2013-03-22 08:01:00,19.4,12.7,29.92,East,90,1.1,2.9,75,0.00,,,0.00,WUHU216HW,2013-03-22 14:01:00,
2013-03-22 08:06:00,19.6,12.9,29.92,ESE,113,1.8,2.7,75,0.00,,,0.00,WUHU216HW,2013-03-22 14:06:00,
2013-03-22 08:11:00,19.8,12.8,29.92,ESE,113,0.0,1.8,74,0.00,,,0.00,WUHU216HW,2013-03-22 14:11:00,
2013-03-22 08:16:00,20.0,13.0,29.93,NW,315,1.8,3.4,74,0.00,,,0.00,WUHU216HW,2013-03-22 14:16:00,
2013-03-22 08:21:00,20.5,14.0,29.93,North,0,2.0,3.4,76,0.00,,,0.00,WUHU216HW,2013-03-22 14:21:00,
2013-03-22 08:26:00,21.1,14.3,29.93,NNE,23,0.2,2.0,75,0.00,,,0.00,WUHU216HW,2013-03-22 14:26:00,
2013-03-22 08:31:00,21.6,14.9,29.93,North,0,1.1,1.1,75,0.00,,,0.00,WUHU216HW,2013-03-22 14:31:00,
2013-03-22 08:36:00,22.1,15.1,29.93,NW,315,0.9,1.1,74,0.00,,,0.00,WUHU216HW,2013-03-22 14:36:00,
2013-03-22 08:41:00,22.5,14.9,29.93,NNW,338,0.4,1.1,72,0.00,,,0.00,WUHU216HW,2013-03-22 14:41:00,
2013-03-22 08:46:00,22.7,15.0,29.93,NW,315,0.0,1.1,72,0.00,,,0.00,WUHU216HW,2013-03-22 14:46:00,
2013-03-22 08:51:00,23.0,15.4,29.93,NW,315,0.4,0.9,72,0.00,,,0.00,WUHU216HW,2013-03-22 14:51:00,
2013-03-22 08:56:00,23.4,15.4,29.93,NNE,23,1.1,2.2,71,0.00,,,0.00,WUHU216HW,2013-03-22 14:56:00,
2013-03-22 09:01:00,23.8,15.4,29.93,North,0,0.0,2.2,70,0.00,,,0.00,WUHU216HW,2013-03-22 15:01:00,
2013-03-22 09:06:00,24.1,15.8,29.93,ENE,68,0.4,1.1,70,0.00,,,0.00,WUHU216HW,2013-03-22 15:06:00,
2013-03-22 09:11:00,24.5,16.0,29.93,SSE,158,0.2,0.4,70,0.00,,,0.00,WUHU216HW,2013-03-22 15:11:00,
2013-03-22 09:16:00,24.8,16.0,29.93,SW,225,0.9,1.1,69,0.00,,,0.00,WUHU216HW,2013-03-22 15:16:00,
2013-03-22 09:21:00,24.8,16.4,29.93,WSW,248,1.8,1.8,70,0.00,,,0.00,WUHU216HW,2013-03-22 15:21:00,
2013-03-22 09:26:00,24.8,15.7,29.93,West,270,1.8,2.5,68,0.00,,,0.00,WUHU216HW,2013-03-22 15:26:00,
2013-03-22 09:31:00,24.8,15.7,29.93,WSW,248,0.7,2.5,68,0.00,,,0.00,WUHU216HW,2013-03-22 15:31:00,
2013-03-22 09:36:00,25.2,16.0,29.93,SW,225,0.0,1.8,68,0.00,,,0.00,WUHU216HW,2013-03-22 15:36:00,
2013-03-22 09:41:00,26.1,16.6,29.93,SSW,203,0.0,1.8,67,0.00,,,0.00,WUHU216HW,2013-03-22 15:41:00,
2013-03-22 09:46:00,26.6,17.1,29.93,SW,225,0.0,1.1,67,0.00,,,0.00,WUHU216HW,2013-03-22 15:46:00,
2013-03-22 09:51:00,27.4,17.5,29.93,West,270,0.0,1.1,66,0.00,,,0.00,WUHU216HW,2013-03-22 15:51:00,
2013-03-22 09:56:00,27.7,17.8,29.93,SSW,203,1.8,1.8,66,0.00,,,0.00,WUHU216HW,2013-03-22 15:56:00,
2013-03-22 10:00:00,28.1,17.8,29.93,SW,225,0.0,1.8,65,0.00,,,0.00,WUHU216HW,2013-03-22 16:00:00,
2013-03-22 10:05:00,28.1,16.7,29.93,West,270,0.4,1.1,62,0.00,,,0.00,WUHU216HW,2013-03-22 16:05:00,
2013-03-22 10:10:00,27.9,16.6,29.93,NNW,338,0.0,0.9,62,0.00,,,0.00,WUHU216HW,2013-03-22 16:10:00,
2013-03-22 10:16:00,28.1,16.7,29.93,ESE,113,1.3,1.3,62,0.00,,,0.00,WUHU216HW,2013-03-22 16:16:00,
2013-03-22 10:21:00,29.0,17.9,29.93,WSW,248,0.7,1.3,63,0.00,,,0.00,WUHU216HW,2013-03-22 16:21:00,
2013-03-22 10:26:00,29.9,18.7,29.93,SW,225,0.9,1.3,63,0.00,,,0.00,WUHU216HW,2013-03-22 16:26:00,
2013-03-22 10:31:00,30.8,19.3,29.93,WNW,293,1.1,1.8,62,0.00,,,0.00,WUHU216HW,2013-03-22 16:31:00,
2013-03-22 10:36:00,31.3,19.1,29.93,North,0,0.4,1.8,60,0.00,,,0.00,WUHU216HW,2013-03-22 16:36:00,
2013-03-22 10:41:00,31.7,19.0,29.93,NW,315,0.0,1.1,59,0.00,,,0.00,WUHU216HW,2013-03-22 16:41:00,
2013-03-22 10:46:00,32.0,18.9,29.94,NW,315,0.0,2.0,58,0.00,,,0.00,WUHU216HW,2013-03-22 16:46:00,
2013-03-22 10:51:00,32.4,17.1,29.94,North,0,3.4,3.4,53,0.00,,,0.00,WUHU216HW,2013-03-22 16:51:00,
2013-03-22 10:56:00,32.0,17.6,29.93,NNE,23,1.8,3.4,55,0.00,,,0.00,WUHU216HW,2013-03-22 16:56:00,
2013-03-22 11:01:00,31.9,16.2,29.94,NNW,338,1.8,4.0,52,0.00,,,0.00,WUHU216HW,2013-03-22 17:01:00,
2013-03-22 11:06:00,31.3,15.7,29.94,North,0,3.6,4.0,52,0.00,,,0.00,WUHU216HW,2013-03-22 17:06:00,
2013-03-22 11:11:00,30.6,15.0,29.94,NW,315,3.6,4.0,52,0.00,,,0.00,WUHU216HW,2013-03-22 17:11:00,
2013-03-22 11:16:00,30.6,15.5,29.94,NW,315,2.2,4.0,53,0.00,,,0.00,WUHU216HW,2013-03-22 17:16:00,
2013-03-22 11:21:00,31.0,15.4,29.94,West,270,5.8,5.8,52,0.00,,,0.00,WUHU216HW,2013-03-22 17:21:00,
2013-03-22 11:26:00,31.0,15.4,29.94,ESE,113,1.8,5.8,52,0.00,,,0.00,WUHU216HW,2013-03-22 17:26:00,
2013-03-22 11:31:00,31.3,15.3,29.94,NNW,338,4.7,4.7,51,0.00,,,0.00,WUHU216HW,2013-03-22 17:31:00,
2013-03-22 11:36:00,31.3,14.9,29.94,NNE,23,4.9,4.9,50,0.00,,,0.00,WUHU216HW,2013-03-22 17:36:00,
2013-03-22 11:41:00,32.0,14.9,29.94,North,0,4.7,5.4,49,0.00,,,0.00,WUHU216HW,2013-03-22 17:41:00,
2013-03-22 11:46:00,32.8,16.6,29.94,SSE,158,0.4,5.4,51,0.00,,,0.00,WUHU216HW,2013-03-22 17:46:00,
2013-03-22 11:51:00,32.8,17.8,29.94,North,0,10.7,10.7,54,0.00,,,0.00,WUHU216HW,2013-03-22 17:51:00,
2013-03-22 11:56:00,32.2,17.4,29.94,NE,45,6.9,10.7,54,0.00,,,0.00,WUHU216HW,2013-03-22 17:56:00,
2013-03-22 12:01:00,31.5,16.8,29.94,North,0,4.7,10.3,54,0.00,,,0.00,WUHU216HW,2013-03-22 18:01:00,
2013-03-22 12:06:00,31.3,15.7,29.94,North,0,5.4,10.3,52,0.00,,,0.00,WUHU216HW,2013-03-22 18:06:00,
2013-03-22 12:11:00,31.5,16.3,29.94,North,0,5.4,5.8,53,0.00,,,0.00,WUHU216HW,2013-03-22 18:11:00,
2013-03-22 12:16:00,32.0,16.7,29.94,NW,315,4.7,6.7,53,0.00,,,0.00,WUHU216HW,2013-03-22 18:16:00,
2013-03-22 12:21:00,32.6,18.5,29.94,NNE,23,9.4,10.1,56,0.00,,,0.00,WUHU216HW,2013-03-22 18:21:00,
2013-03-22 12:26:00,32.0,18.1,29.94,North,0,6.9,11.4,56,0.00,,,0.00,WUHU216HW,2013-03-22 18:26:00,
2013-03-22 12:31:00,31.9,17.0,29.94,North,0,9.6,11.4,54,0.00,,,0.00,WUHU216HW,2013-03-22 18:31:00,
2013-03-22 12:36:00,31.9,16.7,29.94,North,0,4.9,9.6,53,0.00,,,0.00,WUHU216HW,2013-03-22 18:36:00,
2013-03-22 12:41:00,31.7,18.2,29.95,NW,315,11.0,11.4,57,0.00,,,0.00,WUHU216HW,2013-03-22 18:41:00,
2013-03-22 12:46:00,31.7,16.8,29.95,NNW,338,6.0,11.4,54,0.00,,,0.00,WUHU216HW,2013-03-22 18:46:00,
2013-03-22 12:51:00,31.5,16.8,29.95,NW,315,8.7,9.6,54,0.00,,,0.00,WUHU216HW,2013-03-22 18:51:00,
2013-03-22 12:56:00,31.9,15.3,29.94,NNW,338,7.2,11.6,50,0.00,,,0.00,WUHU216HW,2013-03-22 18:56:00,
2013-03-22 13:01:00,32.0,15.9,29.94,West,270,8.9,11.6,51,0.00,,,0.00,WUHU216HW,2013-03-22 19:01:00,
2013-03-22 13:06:00,32.2,17.4,29.94,WNW,293,11.9,11.9,54,0.00,,,0.00,WUHU216HW,2013-03-22 19:06:00,
2013-03-22 13:11:00,32.0,18.1,29.94,WNW,293,11.6,13.4,56,0.00,,,0.00,WUHU216HW,2013-03-22 19:11:00,
2013-03-22 13:16:00,31.5,17.1,29.95,NW,315,6.3,13.4,55,0.00,,,0.00,WUHU216HW,2013-03-22 19:16:00,
2013-03-22 13:21:00,31.3,17.8,29.95,NW,315,12.1,12.1,57,0.00,,,0.00,WUHU216HW,2013-03-22 19:21:00,
2013-03-22 13:26:00,30.8,16.0,29.95,North,0,4.0,12.1,54,0.00,,,0.00,WUHU216HW,2013-03-22 19:26:00,
2013-03-22 13:31:00,31.3,15.7,29.95,NNW,338,2.7,7.2,52,0.00,,,0.00,WUHU216HW,2013-03-22 19:31:00,
2013-03-22 13:36:00,31.7,15.6,29.94,NW,315,7.2,7.2,51,0.00,,,0.00,WUHU216HW,2013-03-22 19:36:00,
2013-03-22 13:41:00,32.0,14.5,29.94,NNW,338,4.0,7.2,48,0.00,,,0.00,WUHU216HW,2013-03-22 19:41:00,
2013-03-22 13:46:00,32.2,14.7,29.94,NNW,338,4.7,9.2,48,0.00,,,0.00,WUHU216HW,2013-03-22 19:46:00,
2013-03-22 13:51:00,32.6,14.9,29.94,NNW,338,6.3,9.2,48,0.00,,,0.00,WUHU216HW,2013-03-22 19:51:00,
2013-03-22 13:56:00,33.1,15.9,29.94,NNW,338,7.6,7.8,49,0.00,,,0.00,WUHU216HW,2013-03-22 19:56:00,
2013-03-22 14:01:00,32.8,14.6,29.94,North,0,8.7,8.7,47,0.00,,,0.00,WUHU216HW,2013-03-22 20:01:00,
2013-03-22 14:06:00,32.9,13.8,29.94,NW,315,7.6,8.7,45,0.00,,,0.00,WUHU216HW,2013-03-22 20:06:00,
2013-03-22 14:11:00,32.8,15.1,29.94,NW,315,9.2,10.5,48,0.00,,,0.00,WUHU216HW,2013-03-22 20:11:00,
2013-03-22 14:16:00,32.6,13.0,29.94,North,0,5.4,11.4,44,0.00,,,0.00,WUHU216HW,2013-03-22 20:16:00,
2013-03-22 14:21:00,32.4,13.3,29.94,North,0,9.2,11.4,45,0.00,,,0.00,WUHU216HW,2013-03-22 20:21:00,
2013-03-22 14:26:00,32.8,13.6,29.94,NNW,338,8.3,10.3,45,0.00,,,0.00,WUHU216HW,2013-03-22 20:26:00,
2013-03-22 14:31:00,33.8,16.1,29.93,WNW,293,10.5,10.5,48,0.00,,,0.00,WUHU216HW,2013-03-22 20:31:00,
2013-03-22 14:36:00,34.0,13.2,29.93,North,0,6.3,11.2,42,0.00,,,0.00,WUHU216HW,2013-03-22 20:36:00,
2013-03-22 14:41:00,33.8,12.1,29.93,NNW,338,7.6,11.2,40,0.00,,,0.00,WUHU216HW,2013-03-22 20:41:00,
2013-03-22 14:46:00,33.7,11.9,29.93,North,0,9.4,9.8,40,0.00,,,0.00,WUHU216HW,2013-03-22 20:46:00,
2013-03-22 14:51:00,34.4,13.6,29.93,NNW,338,7.6,10.1,42,0.00,,,0.00,WUHU216HW,2013-03-22 20:51:00,
2013-03-22 14:56:00,34.4,12.5,29.93,North,0,8.5,11.4,40,0.00,,,0.00,WUHU216HW,2013-03-22 20:56:00,
2013-03-22 15:01:00,33.3,11.6,29.93,North,0,9.6,11.4,40,0.00,,,0.00,WUHU216HW,2013-03-22 21:01:00,
2013-03-22 15:06:00,33.1,12.4,29.93,NE,45,3.8,9.8,42,0.00,,,0.00,WUHU216HW,2013-03-22 21:06:00,
2013-03-22 15:11:00,34.2,12.4,29.93,North,0,10.3,14.8,40,0.00,,,0.00,WUHU216HW,2013-03-22 21:11:00,
2013-03-22 15:16:00,34.0,12.3,29.93,NNE,23,15.7,15.7,40,0.00,,,0.00,WUHU216HW,2013-03-22 21:16:00,
2013-03-22 15:21:00,34.6,11.4,29.93,North,0,12.3,15.7,38,0.00,,,0.00,WUHU216HW,2013-03-22 21:21:00,
2013-03-22 15:26:00,34.4,9.4,29.94,North,0,10.5,12.3,35,0.00,,,0.00,WUHU216HW,2013-03-22 21:26:00,
2013-03-22 15:31:00,33.5,10.4,29.94,NW,315,4.9,10.5,38,0.00,,,0.00,WUHU216HW,2013-03-22 21:31:00,
2013-03-22 15:36:00,34.6,12.7,29.94,NNW,338,12.8,12.8,40,0.00,,,0.00,WUHU216HW,2013-03-22 21:36:00,
2013-03-22 15:41:00,34.2,11.8,29.94,NNW,338,8.5,12.8,39,0.00,,,0.00,WUHU216HW,2013-03-22 21:41:00,
2013-03-22 15:46:00,33.8,13.1,29.94,NW,315,8.9,10.3,42,0.00,,,0.00,WUHU216HW,2013-03-22 21:46:00,
2013-03-22 15:51:00,33.7,11.9,29.94,NW,315,10.7,13.0,40,0.00,,,0.00,WUHU216HW,2013-03-22 21:51:00,
2013-03-22 15:56:00,34.2,12.9,29.94,NNW,338,10.5,13.0,41,0.00,,,0.00,WUHU216HW,2013-03-22 21:56:00,
2013-03-22 16:01:00,33.8,11.4,29.94,NNW,338,6.7,13.4,39,0.00,,,0.00,WUHU216HW,2013-03-22 22:01:00,
2013-03-22 16:06:00,33.7,11.9,29.95,NNW,338,7.8,13.4,40,0.00,,,0.00,WUHU216HW,2013-03-22 22:06:00,
2013-03-22 16:11:00,33.8,13.1,29.95,NW,315,10.1,16.3,42,0.00,,,0.00,WUHU216HW,2013-03-22 22:11:00,
2013-03-22 16:16:00,33.5,11.1,29.95,NW,315,12.5,16.3,39,0.00,,,0.00,WUHU216HW,2013-03-22 22:16:00,
2013-03-22 16:21:00,33.1,11.4,29.95,NNW,338,7.2,12.8,40,0.00,,,0.00,WUHU216HW,2013-03-22 22:21:00,
2013-03-22 16:26:00,33.1,12.4,29.95,NNW,338,9.4,12.8,42,0.00,,,0.00,WUHU216HW,2013-03-22 22:26:00,
2013-03-22 16:31:00,32.9,11.8,29.95,NW,315,8.9,12.8,41,0.00,,,0.00,WUHU216HW,2013-03-22 22:31:00,
2013-03-22 16:35:00,33.3,12.6,29.95,NNW,338,10.1,11.2,42,0.00,,,0.00,WUHU216HW,2013-03-22 22:35:00,
2013-03-22 16:41:00,33.5,12.2,29.95,NNW,338,6.9,11.2,41,0.00,,,0.00,WUHU216HW,2013-03-22 22:41:00,
2013-03-22 16:45:00,33.5,13.2,29.95,NW,315,11.6,11.6,43,0.00,,,0.00,WUHU216HW,2013-03-22 22:45:00,
2013-03-22 16:50:00,33.5,13.2,29.95,NW,315,12.5,12.5,43,0.00,,,0.00,WUHU216HW,2013-03-22 22:50:00,
2013-03-22 16:55:00,33.5,12.8,29.95,North,0,12.3,13.4,42,0.00,,,0.00,WUHU216HW,2013-03-22 22:55:00,
2013-03-22 17:00:00,33.5,12.2,29.96,NNW,338,10.7,13.4,41,0.00,,,0.00,WUHU216HW,2013-03-22 23:00:00,
2013-03-22 17:05:00,33.1,12.4,29.96,WNW,293,8.7,12.8,42,0.00,,,0.00,WUHU216HW,2013-03-22 23:05:00,
2013-03-22 17:10:00,32.8,12.6,29.96,NW,315,12.3,12.3,43,0.00,,,0.00,WUHU216HW,2013-03-22 23:10:00,
2013-03-22 17:15:00,32.4,12.2,29.96,NNW,338,9.8,12.3,43,0.00,,,0.00,WUHU216HW,2013-03-22 23:15:00,
2013-03-22 17:20:00,32.6,13.0,29.96,NW,315,10.5,11.0,44,0.00,,,0.00,WUHU216HW,2013-03-22 23:20:00,
2013-03-22 17:25:00,32.6,13.0,29.96,NW,315,11.4,11.9,44,0.00,,,0.00,WUHU216HW,2013-03-22 23:25:00,
2013-03-22 17:30:00,32.6,12.4,29.97,NW,315,12.8,12.8,43,0.00,,,0.00,WUHU216HW,2013-03-22 23:30:00,
2013-03-22 17:35:00,32.2,12.6,29.97,WNW,293,12.1,12.8,44,0.00,,,0.00,WUHU216HW,2013-03-22 23:35:00,
2013-03-22 17:40:00,32.0,12.4,29.97,NW,315,9.8,12.1,44,0.00,,,0.00,WUHU216HW,2013-03-22 23:40:00,
2013-03-22 17:45:00,31.9,12.3,29.97,NNW,338,9.8,11.4,44,0.00,,,0.00,WUHU216HW,2013-03-22 23:45:00,
2013-03-22 17:50:00,31.9,12.8,29.97,NNW,338,12.8,12.8,45,0.00,,,0.00,WUHU216HW,2013-03-22 23:50:00,
2013-03-22 17:55:00,31.5,12.5,29.98,NNW,338,9.2,12.8,45,0.00,,,0.00,WUHU216HW,2013-03-22 23:55:00,
2013-03-22 18:00:00,31.3,12.3,29.98,NW,315,7.6,10.7,45,0.00,,,0.00,WUHU216HW,2013-03-23 00:00:00,
2013-03-22 18:05:00,31.3,12.8,29.98,NW,315,11.2,11.4,46,0.00,,,0.00,WUHU216HW,2013-03-23 00:05:00,
2013-03-22 18:10:00,31.1,12.7,29.98,NW,315,11.6,15.4,46,0.00,,,0.00,WUHU216HW,2013-03-23 00:10:00,
2013-03-22 18:15:00,30.6,13.1,29.98,NW,315,16.8,16.8,48,0.00,,,0.00,WUHU216HW,2013-03-23 00:15:00,
2013-03-22 18:20:00,30.2,13.3,29.99,NNW,338,11.4,16.8,49,0.00,,,0.00,WUHU216HW,2013-03-23 00:20:00,
2013-03-22 18:25:00,30.2,13.3,29.99,NNW,338,11.4,15.4,49,0.00,,,0.00,WUHU216HW,2013-03-23 00:25:00,
2013-03-22 18:30:00,29.9,13.5,29.99,NW,315,12.3,15.2,50,0.00,,,0.00,WUHU216HW,2013-03-23 00:30:00,
2013-03-22 18:35:00,29.9,13.1,29.99,NNW,338,10.5,14.3,49,0.00,,,0.00,WUHU216HW,2013-03-23 00:35:00,
2013-03-22 18:40:00,29.9,13.5,29.99,NW,315,15.9,15.9,50,0.00,,,0.00,WUHU216HW,2013-03-23 00:40:00,
2013-03-22 18:45:00,29.7,12.9,30.00,NW,315,13.6,15.9,49,0.00,,,0.00,WUHU216HW,2013-03-23 00:45:00,
2013-03-22 18:50:00,29.2,13.3,30.00,NW,315,13.6,16.1,51,0.00,,,0.00,WUHU216HW,2013-03-23 00:50:00,
2013-03-22 18:55:00,29.0,13.1,30.00,NW,315,16.3,18.3,51,0.00,,,0.00,WUHU216HW,2013-03-23 00:55:00,
2013-03-22 19:00:00,28.8,13.0,30.00,NW,315,14.1,18.3,51,0.00,,,0.00,WUHU216HW,2013-03-23 01:00:00,
2013-03-22 19:06:00,28.4,12.2,30.01,NW,315,10.7,14.3,50,0.00,,,0.00,WUHU216HW,2013-03-23 01:06:00,
2013-03-22 19:11:00,28.3,11.5,30.01,NW,315,12.1,14.5,49,0.00,,,0.00,WUHU216HW,2013-03-23 01:11:00,
2013-03-22 19:16:00,28.1,11.9,30.01,NW,315,9.8,14.5,50,0.00,,,0.00,WUHU216HW,2013-03-23 01:16:00,
2013-03-22 19:21:00,27.9,12.2,30.01,NNW,338,10.1,14.3,51,0.00,,,0.00,WUHU216HW,2013-03-23 01:21:00,
2013-03-22 19:26:00,27.7,12.0,30.01,NW,315,9.2,14.8,51,0.00,,,0.00,WUHU216HW,2013-03-23 01:26:00,
2013-03-22 19:31:00,27.5,11.3,30.01,NNW,338,11.4,14.8,50,0.00,,,0.00,WUHU216HW,2013-03-23 01:31:00,
2013-03-22 19:36:00,27.4,11.2,30.02,NW,315,12.1,13.4,50,0.00,,,0.00,WUHU216HW,2013-03-23 01:36:00,
2013-03-22 19:41:00,27.2,11.4,30.02,NW,315,13.0,13.4,51,0.00,,,0.00,WUHU216HW,2013-03-23 01:41:00,
2013-03-22 19:46:00,27.0,11.3,30.02,NW,315,12.1,13.0,51,0.00,,,0.00,WUHU216HW,2013-03-23 01:46:00,
2013-03-22 19:51:00,26.8,11.4,30.02,NW,315,11.6,12.8,52,0.00,,,0.00,WUHU216HW,2013-03-23 01:51:00,
2013-03-22 19:56:00,26.6,11.3,30.02,NNW,338,13.6,13.6,52,0.00,,,0.00,WUHU216HW,2013-03-23 01:56:00,
2013-03-22 20:01:00,26.5,11.1,30.02,NW,315,12.1,13.6,52,0.00,,,0.00,WUHU216HW,2013-03-23 02:01:00,
2013-03-22 20:06:00,26.3,11.3,30.03,NW,315,12.3,13.2,53,0.00,,,0.00,WUHU216HW,2013-03-23 02:06:00,
2013-03-22 20:11:00,26.1,11.2,30.03,NW,315,10.3,13.4,53,0.00,,,0.00,WUHU216HW,2013-03-23 02:11:00,
2013-03-22 20:16:00,25.9,11.4,30.03,NW,315,13.9,13.9,54,0.00,,,0.00,WUHU216HW,2013-03-23 02:16:00,
2013-03-22 20:21:00,25.7,10.9,30.03,NW,315,6.3,13.9,53,0.00,,,0.00,WUHU216HW,2013-03-23 02:21:00,
2013-03-22 20:26:00,25.7,11.3,30.04,NNW,338,8.7,13.9,54,0.00,,,0.00,WUHU216HW,2013-03-23 02:26:00,
2013-03-22 20:31:00,25.6,11.2,30.04,NW,315,9.8,13.6,54,0.00,,,0.00,WUHU216HW,2013-03-23 02:31:00,
2013-03-22 20:36:00,25.6,11.2,30.04,NW,315,10.1,12.8,54,0.00,,,0.00,WUHU216HW,2013-03-23 02:36:00,
2013-03-22 20:41:00,25.4,10.5,30.05,NW,315,15.0,15.2,53,0.00,,,0.00,WUHU216HW,2013-03-23 02:41:00,
2013-03-22 20:46:00,25.4,11.0,30.05,NW,315,10.1,15.2,54,0.00,,,0.00,WUHU216HW,2013-03-23 02:46:00,
2013-03-22 20:51:00,25.2,10.8,30.05,NW,315,10.1,12.3,54,0.00,,,0.00,WUHU216HW,2013-03-23 02:51:00,
2013-03-22 20:56:00,25.2,10.8,30.05,NNW,338,11.4,12.3,54,0.00,,,0.00,WUHU216HW,2013-03-23 02:56:00,
2013-03-22 21:11:00,24.8,10.9,30.06,NNW,338,5.4,12.5,55,0.00,,,0.00,WUHU216HW,2013-03-23 03:11:00,
2013-03-22 21:16:00,24.7,10.7,30.06,NNW,338,6.7,10.7,55,0.00,,,0.00,WUHU216HW,2013-03-23 03:16:00,
2013-03-22 21:22:00,24.7,10.4,30.07,NNW,338,9.8,10.3,54,0.00,,,0.00,WUHU216HW,2013-03-23 03:22:00,
2013-03-22 21:27:00,24.7,10.7,30.07,NNW,338,6.5,10.3,55,0.00,,,0.00,WUHU216HW,2013-03-23 03:27:00,
2013-03-22 21:32:00,24.5,11.0,30.07,NNW,338,6.9,9.2,56,0.00,,,0.00,WUHU216HW,2013-03-23 03:32:00,
2013-03-22 21:37:00,24.3,10.4,30.07,NNW,338,7.4,9.2,55,0.00,,,0.00,WUHU216HW,2013-03-23 03:37:00,
2013-03-22 21:42:00,24.1,10.2,30.07,NW,315,7.2,10.3,55,0.00,,,0.00,WUHU216HW,2013-03-23 03:42:00,
2013-03-22 21:47:00,24.1,10.6,30.08,NW,315,7.4,10.3,56,0.00,,,0.00,WUHU216HW,2013-03-23 03:47:00,
2013-03-22 21:52:00,23.8,10.3,30.08,NNW,338,7.2,8.9,56,0.00,,,0.00,WUHU216HW,2013-03-23 03:52:00,
2013-03-22 21:57:00,23.8,10.3,30.08,NNW,338,6.0,8.3,56,0.00,,,0.00,WUHU216HW,2013-03-23 03:57:00,
2013-03-22 22:00:00,23.8,10.3,30.08,NW,315,5.8,8.5,56,0.00,,,0.00,WUHU216HW,2013-03-23 04:00:00,
2013-03-22 22:05:00,23.6,10.5,30.08,NW,315,7.8,8.5,57,0.00,,,0.00,WUHU216HW,2013-03-23 04:05:00,
2013-03-22 22:10:00,23.4,10.4,30.08,NW,315,7.6,8.1,57,0.00,,,0.00,WUHU216HW,2013-03-23 04:10:00,
2013-03-22 22:15:00,23.2,11.0,30.09,NW,315,6.5,8.5,59,0.00,,,0.00,WUHU216HW,2013-03-23 04:15:00,
2013-03-22 22:20:00,23.0,10.4,30.09,NW,315,6.9,8.5,58,0.00,,,0.00,WUHU216HW,2013-03-23 04:20:00,
2013-03-22 22:25:00,22.9,11.0,30.09,NW,315,6.3,8.1,60,0.00,,,0.00,WUHU216HW,2013-03-23 04:25:00,
2013-03-22 22:30:00,22.7,10.8,30.09,North,0,5.6,8.5,60,0.00,,,0.00,WUHU216HW,2013-03-23 04:30:00,
2013-03-22 22:35:00,22.9,10.6,30.09,NNW,338,4.9,8.5,59,0.00,,,0.00,WUHU216HW,2013-03-23 04:35:00,
2013-03-22 22:40:00,22.9,10.6,30.10,NW,315,6.3,8.5,59,0.00,,,0.00,WUHU216HW,2013-03-23 04:40:00,
2013-03-22 22:45:00,23.0,11.2,30.10,NNW,338,5.4,8.5,60,0.00,,,0.00,WUHU216HW,2013-03-23 04:45:00,
2013-03-22 22:50:00,23.0,10.8,30.10,NNW,338,4.0,6.9,59,0.00,,,0.00,WUHU216HW,2013-03-23 04:50:00,
2013-03-22 22:55:00,23.0,11.2,30.09,NNW,338,5.4,6.3,60,0.00,,,0.00,WUHU216HW,2013-03-23 04:55:00,
2013-03-22 23:00:00,22.9,11.0,30.09,NNW,338,5.1,6.3,60,0.00,,,0.00,WUHU216HW,2013-03-23 05:00:00,
2013-03-22 23:05:00,22.7,10.8,30.09,North,0,4.5,6.0,60,0.00,,,0.00,WUHU216HW,2013-03-23 05:05:00,
2013-03-22 23:10:00,22.7,10.8,30.10,NNW,338,8.3,8.3,60,0.00,,,0.00,WUHU216HW,2013-03-23 05:10:00,
2013-03-22 23:15:00,22.7,10.8,30.10,North,0,4.0,8.3,60,0.00,,,0.00,WUHU216HW,2013-03-23 05:15:00,
2013-03-22 23:20:00,22.3,10.9,30.10,North,0,4.9,5.4,61,0.00,,,0.00,WUHU216HW,2013-03-23 05:20:00,
2013-03-22 23:25:00,22.1,11.1,30.09,North,0,5.4,6.5,62,0.00,,,0.00,WUHU216HW,2013-03-23 05:25:00,
2013-03-22 23:30:00,22.1,11.1,30.09,North,0,4.0,6.5,62,0.00,,,0.00,WUHU216HW,2013-03-23 05:30:00,
2013-03-22 23:35:00,22.0,10.9,30.09,North,0,7.6,7.6,62,0.00,,,0.00,WUHU216HW,2013-03-23 05:35:00,
2013-03-22 23:40:00,22.0,10.5,30.09,North,0,5.6,8.5,61,0.00,,,0.00,WUHU216HW,2013-03-23 05:40:00,
2013-03-22 23:45:00,22.0,10.5,30.10,North,0,4.0,8.5,61,0.00,,,0.00,WUHU216HW,2013-03-23 05:45:00,
2013-03-22 23:50:00,22.0,10.5,30.10,North,0,5.8,6.9,61,0.00,,,0.00,WUHU216HW,2013-03-23 05:50:00,
2013-03-22 23:55:00,22.0,10.5,30.10,North,0,7.4,7.4,61,0.00,,,0.00,WUHU216HW,2013-03-23 05:55:00,